Time;durP1;ratioP1;P1;durP2;ratioP2;P2;SDS_P1;SDS_P2;PMS_P1;PMS_P2;Temp;Humidity;BMP_temperature;BMP_pressure;BME280_temperature;BME280_humidity;BME280_pressure;Samples;Min_cycle;Max_cycle;Signal;HPM_P1;HPM_P2
2022/11/19 00:01:18;;;;;;;;;;;1.10;99.90;;;;;;5069819;28;20053;-72
2022/11/19 00:03:44;;;;;;;4.70;3.40;;;1.00;99.90;;;;;;5070608;28;19965;-72
2022/11/19 00:06:12;;;;;;;18.17;12.07;;;1.00;99.90;;;;;;5072009;28;20044;-72
2022/11/19 00:08:38;;;;;;;17.45;12.73;;;1.00;99.90;;;;;;5066969;28;20051;-73
2022/11/19 00:11:05;;;;;;;16.27;11.73;;;1.00;99.90;;;;;;5058923;28;20393;-73
2022/11/19 00:13:32;;;;;;;18.38;11.48;;;1.00;99.90;;;;;;5067514;28;20049;-72
2022/11/19 00:16:06;;;;;;;16.02;11.45;;;1.00;99.90;;;;;;5058713;28;20045;-73
2022/11/19 00:18:32;;;;;;;17.92;11.32;;;1.00;99.90;;;;;;5056499;28;20044;-73
2022/11/19 00:21:11;;;;;;;17.98;10.77;;;0.90;99.90;;;;;;5069126;28;20055;-73
2022/11/19 00:23:38;;;;;;;17.35;12.48;;;0.90;99.90;;;;;;5068157;28;20053;-73
2022/11/19 00:26:09;;;;;;;15.13;10.88;;;0.90;99.90;;;;;;5067720;28;20055;-73
2022/11/19 00:28:35;;;;;;;15.45;11.38;;;0.90;99.90;;;;;;5064889;28;20079;-73
2022/11/19 00:31:03;;;;;;;13.85;9.80;;;0.80;99.90;;;;;;5069777;28;20044;-73
2022/11/19 00:33:29;;;;;;;17.90;11.88;;;0.80;99.90;;;;;;5069146;28;20047;-73
2022/11/19 00:35:56;;;;;;;18.05;11.80;;;0.80;99.90;;;;;;5069346;28;20055;-73
2022/11/19 00:38:22;;;;;;;19.70;11.25;;;0.70;99.90;;;;;;5067340;28;20060;-74
2022/11/19 00:40:47;;;;;;;17.48;11.30;;;0.70;99.90;;;;;;5067718;28;20702;-73
2022/11/19 00:45:57;;;;;;;17.92;11.48;;;0.60;99.90;;;;;;5069529;28;20142;-73
2022/11/19 00:48:22;;;;;;;18.88;11.20;;;0.50;99.90;;;;;;5068690;28;20509;-73
2022/11/19 00:50:48;;;;;;;17.25;10.63;;;0.40;99.90;;;;;;5066537;28;20049;-73
2022/11/19 00:53:14;;;;;;;14.15;10.43;;;0.40;99.90;;;;;;5063569;28;20045;-73
2022/11/19 00:55:39;;;;;;;7.20;3.72;;;0.40;99.90;;;;;;5068165;28;20044;-73
2022/11/19 00:58:05;;;;;;;7.80;2.88;;;0.40;99.90;;;;;;5068282;28;20045;-72
2022/11/19 01:00:30;;;;;;;17.42;11.65;;;0.30;99.90;;;;;;5060397;28;20041;-72
2022/11/19 01:02:57;;;;;;;15.18;10.02;;;0.30;99.90;;;;;;5069512;28;20102;-72
2022/11/19 01:05:22;;;;;;;4.20;2.75;;;0.30;99.90;;;;;;5067810;28;20044;-72
2022/11/19 01:07:48;;;;;;;16.85;10.40;;;0.30;99.90;;;;;;5066975;28;20528;-71
2022/11/19 01:10:14;;;;;;;15.43;10.75;;;0.30;99.90;;;;;;5068567;28;20451;-72
2022/11/19 01:13:33;;;;;;;15.35;10.82;;;0.30;99.90;;;;;;5065856;28;20048;-71
2022/11/19 01:15:25;;;;;;;16.02;11.18;;;0.40;99.90;;;;;;5082176;28;20420;-71
2022/11/19 01:17:51;;;;;;;17.63;12.00;;;0.30;99.90;;;;;;5067575;28;20047;-71
2022/11/19 01:20:16;;;;;;;16.17;11.57;;;0.30;99.90;;;;;;5081242;28;20048;-71
2022/11/19 01:22:42;;;;;;;20.38;12.63;;;0.30;99.90;;;;;;5071225;28;20154;-71
2022/11/19 01:25:08;;;;;;;20.77;12.00;;;0.20;99.90;;;;;;5084604;28;20067;-71
2022/11/19 01:27:33;;;;;;;17.80;11.65;;;0.20;99.90;;;;;;5073094;28;20044;-71
2022/11/19 01:29:59;;;;;;;12.65;6.50;;;0.20;99.90;;;;;;5076467;28;20048;-71
2022/11/19 01:32:25;;;;;;;19.00;12.43;;;0.10;99.90;;;;;;5078178;28;20048;-71
2022/11/19 01:34:52;;;;;;;18.40;12.43;;;0.10;99.90;;;;;;5061065;28;20036;-70
2022/11/19 01:37:17;;;;;;;18.25;12.48;;;0.10;99.90;;;;;;5081323;28;20409;-70
2022/11/19 01:39:43;;;;;;;16.90;12.77;;;0.10;99.90;;;;;;5070616;28;20056;-70
2022/11/19 01:42:48;;;;;;;20.40;11.95;;;0.00;99.90;;;;;;5075355;28;20066;-70
2022/11/19 01:45:23;;;;;;;16.50;11.57;;;0.00;99.90;;;;;;5076430;28;20063;-70
2022/11/19 01:47:50;;;;;;;22.88;11.68;;;0.00;99.90;;;;;;5041210;28;20106;-70
2022/11/19 01:50:16;;;;;;;18.75;13.05;;;0.00;99.90;;;;;;5056954;28;20036;-70
2022/11/19 01:52:42;;;;;;;18.88;12.55;;;0.00;99.90;;;;;;5076471;28;20044;-70
2022/11/19 01:55:08;;;;;;;22.88;14.23;;;0.00;99.90;;;;;;5071690;28;20050;-70
2022/11/19 01:57:37;;;;;;;17.23;12.32;;;0.00;99.90;;;;;;5070347;28;20051;-70
2022/11/19 02:00:03;;;;;;;20.80;12.63;;;0.00;99.90;;;;;;5077091;28;20071;-70
2022/11/19 02:02:30;;;;;;;16.65;12.73;;;-0.10;99.90;;;;;;5071668;28;20072;-70
2022/11/19 02:04:56;;;;;;;20.05;12.75;;;-0.20;99.90;;;;;;5075005;28;20059;-70
2022/11/19 02:07:27;;;;;;;18.92;12.88;;;-0.20;99.90;;;;;;5071025;28;20052;-70
2022/11/19 02:09:55;;;;;;;17.02;11.45;;;-0.20;99.90;;;;;;5063831;28;20120;-70
2022/11/19 02:12:42;;;;;;;4.47;4.13;;;-0.20;99.90;;;;;;5065558;28;20544;-70
2022/11/19 02:15:39;;;;;;;16.80;11.25;;;-0.20;99.90;;;;;;5049762;28;20082;-70
2022/11/19 02:18:07;;;;;;;23.77;11.10;;;-0.20;99.90;;;;;;5061475;28;20135;-70
2022/11/19 02:20:44;;;;;;;15.90;11.05;;;-0.20;99.90;;;;;;5067157;28;20045;-70
2022/11/19 02:23:37;;;;;;;21.35;11.70;;;-0.20;99.90;;;;;;5065525;28;20040;-70
2022/11/19 02:26:27;;;;;;;19.15;12.57;;;-0.30;99.90;;;;;;5064911;28;20156;-70
2022/11/19 02:29:06;;;;;;;14.57;10.65;;;-0.20;99.90;;;;;;5056442;28;20087;-70
2022/11/19 02:32:16;;;;;;;20.50;11.73;;;-0.30;99.90;;;;;;5067694;28;20041;-70
2022/11/19 02:34:52;;;;;;;16.13;11.38;;;-0.30;99.90;;;;;;5047836;28;20527;-70
2022/11/19 02:37:27;;;;;;;18.13;10.82;;;-0.30;99.90;;;;;;5064345;28;20409;-70
2022/11/19 02:40:03;;;;;;;15.85;11.60;;;-0.30;99.90;;;;;;5061136;28;20073;-70
2022/11/19 02:42:37;;;;;;;16.15;10.75;;;-0.40;99.90;;;;;;5067116;28;20402;-70
2022/11/19 02:45:33;;;;;;;19.30;11.52;;;-0.40;99.90;;;;;;5067609;28;20059;-70
2022/11/19 02:48:06;;;;;;;14.95;10.98;;;-0.40;99.90;;;;;;5072209;28;20056;-70
2022/11/19 02:50:36;;;;;;;3.60;3.30;;;-0.40;99.90;;;;;;5071609;28;20229;-70
2022/11/19 02:53:03;;;;;;;13.77;5.97;;;-0.40;99.90;;;;;;5067561;28;20116;-70
2022/11/19 02:55:30;;;;;;;3.00;2.33;;;-0.50;99.90;;;;;;5065285;28;20127;-70
2022/11/19 03:04:28;;;;;;;6.72;3.90;;;-0.50;99.90;;;;;;5068286;28;20066;-70
2022/11/19 03:06:33;;;;;;;20.00;11.40;;;-0.50;99.90;;;;;;5068514;28;20090;-70
2022/11/19 03:08:59;;;;;;;16.35;11.27;;;-0.60;99.90;;;;;;5064985;28;20059;-70
2022/11/19 03:11:30;;;;;;;21.75;13.45;;;-0.60;99.90;;;;;;5057937;28;20118;-70
2022/11/19 03:17:13;;;;;;;15.13;10.85;;;-0.60;99.90;;;;;;5069328;28;20061;-70
2022/11/19 03:19:48;;;;;;;15.80;11.23;;;-0.70;99.90;;;;;;5053217;28;20079;-70
2022/11/19 03:22:27;;;;;;;22.48;11.82;;;-0.70;99.90;;;;;;5084339;28;20052;-70
2022/11/19 03:25:09;;;;;;;20.48;11.80;;;-0.70;99.90;;;;;;5071165;28;20139;-70
2022/11/19 03:27:43;;;;;;;6.85;3.33;;;-0.70;99.90;;;;;;5068684;28;20106;-70
2022/11/19 03:30:10;;;;;;;17.13;12.07;;;-0.80;99.90;;;;;;5069574;28;20159;-70
2022/11/19 03:32:56;;;;;;;18.80;11.85;;;-0.80;99.90;;;;;;5061064;28;20055;-69
2022/11/19 03:35:31;;;;;;;20.17;12.77;;;-0.80;99.90;;;;;;5068971;28;20083;-71
2022/11/19 03:38:03;;;;;;;19.15;13.07;;;-0.80;99.90;;;;;;5069151;28;20052;-70
2022/11/19 03:40:32;;;;;;;18.58;12.45;;;-0.80;99.90;;;;;;5051450;28;20052;-70
2022/11/19 03:43:04;;;;;;;21.45;13.57;;;-0.80;99.90;;;;;;5079524;28;20036;-70
2022/11/19 03:45:36;;;;;;;18.08;11.45;;;-0.90;99.90;;;;;;5067663;28;20053;-70
2022/11/19 03:48:03;;;;;;;20.52;14.02;;;-0.90;99.90;;;;;;5068946;28;20048;-70
2022/11/19 03:50:48;;;;;;;4.07;2.90;;;-0.90;99.90;;;;;;5068201;28;20052;-70
2022/11/19 03:53:15;;;;;;;14.60;11.32;;;-0.90;99.90;;;;;;5056211;28;20143;-70
2022/11/19 03:55:49;;;;;;;18.95;12.50;;;-0.90;99.90;;;;;;5059585;28;20836;-71
2022/11/19 03:58:15;;;;;;;6.38;2.83;;;-0.90;99.90;;;;;;5067919;28;20397;-70
2022/11/19 04:00:41;;;;;;;16.90;12.55;;;-0.90;99.90;;;;;;5069404;28;20051;-70
2022/11/19 04:03:06;;;;;;;19.95;13.32;;;-1.00;99.90;;;;;;5069791;28;20417;-70
2022/11/19 04:05:32;;;;;;;19.90;12.90;;;-1.00;99.90;;;;;;5068037;28;20143;-70
2022/11/19 04:07:57;;;;;;;15.38;11.65;;;-1.00;99.90;;;;;;5077994;28;20130;-70
2022/11/19 04:10:23;;;;;;;7.63;4.50;;;-1.00;99.90;;;;;;5072612;28;20101;-70
2022/11/19 04:12:49;;;;;;;16.77;11.88;;;-1.00;99.90;;;;;;5067384;28;20045;-69
2022/11/19 04:15:14;;;;;;;19.35;12.02;;;-1.00;99.90;;;;;;5065895;28;20488;-70
2022/11/19 04:17:40;;;;;;;21.73;13.35;;;-1.00;99.90;;;;;;5067100;28;20044;-70
2022/11/19 04:20:07;;;;;;;23.25;12.88;;;-1.10;99.90;;;;;;5068382;28;20052;-70
2022/11/19 04:22:33;;;;;;;19.10;12.10;;;-1.10;99.90;;;;;;5068297;28;20044;-70
2022/11/19 04:24:59;;;;;;;17.20;11.68;;;-1.00;99.90;;;;;;5069558;28;20051;-70
2022/11/19 04:27:25;;;;;;;18.40;12.25;;;-1.00;99.90;;;;;;5061281;28;20051;-70
2022/11/19 04:29:50;;;;;;;4.95;2.85;;;-1.10;99.90;;;;;;5066903;28;20570;-70
2022/11/19 04:32:16;;;;;;;3.90;3.05;;;-1.10;99.90;;;;;;5066074;28;20143;-70
2022/11/19 04:34:42;;;;;;;18.75;13.70;;;-1.10;99.90;;;;;;5069057;28;20082;-70
2022/11/19 04:37:07;;;;;;;20.13;12.65;;;-1.10;99.90;;;;;;5068127;28;20127;-70
2022/11/19 04:39:33;;;;;;;16.70;11.88;;;-1.10;99.90;;;;;;5056014;28;20425;-70
2022/11/19 04:41:58;;;;;;;18.52;13.02;;;-1.10;99.90;;;;;;5068629;28;20475;-70
2022/11/19 04:44:24;;;;;;;19.05;13.48;;;-1.10;99.90;;;;;;5055511;28;20060;-70
2022/11/19 04:46:50;;;;;;;7.55;3.92;;;-1.10;99.90;;;;;;5067275;28;20044;-70
2022/11/19 04:49:15;;;;;;;19.80;13.15;;;-1.10;99.90;;;;;;5051447;28;20049;-70
2022/11/19 04:51:41;;;;;;;23.60;13.95;;;-1.20;99.90;;;;;;5059022;28;20414;-70
2022/11/19 04:54:09;;;;;;;19.38;13.90;;;-1.20;99.90;;;;;;5068084;28;20345;-70
2022/11/19 04:56:36;;;;;;;19.45;13.77;;;-1.20;99.90;;;;;;5061899;28;20041;-70
2022/11/19 04:59:02;;;;;;;21.85;14.65;;;-1.20;99.90;;;;;;5061526;28;20090;-70
2022/11/19 05:01:28;;;;;;;20.98;14.23;;;-1.20;99.90;;;;;;5068066;28;20517;-70
2022/11/19 05:03:53;;;;;;;16.70;12.00;;;-1.20;99.90;;;;;;5067231;28;20044;-70
2022/11/19 05:06:19;;;;;;;20.92;13.48;;;-1.20;99.90;;;;;;5065970;28;20037;-70
2022/11/19 05:08:45;;;;;;;26.00;14.57;;;-1.20;99.90;;;;;;5070050;28;20397;-70
2022/11/19 05:11:10;;;;;;;25.98;14.50;;;-1.30;99.90;;;;;;5066461;28;20178;-70
2022/11/19 05:13:36;;;;;;;24.55;14.50;;;-1.30;99.90;;;;;;5068698;28;20398;-70
2022/11/19 05:16:02;;;;;;;28.13;14.90;;;-1.30;99.90;;;;;;5067582;28;20040;-70
2022/11/19 05:18:28;;;;;;;24.70;14.35;;;-1.40;99.90;;;;;;5067420;28;20051;-70
2022/11/19 05:20:53;;;;;;;23.45;14.30;;;-1.40;99.90;;;;;;5068095;28;20033;-70
2022/11/19 05:23:19;;;;;;;21.45;14.52;;;-1.40;99.90;;;;;;5061385;28;20036;-70
2022/11/19 05:25:45;;;;;;;23.42;14.15;;;-1.50;99.90;;;;;;5067000;28;20036;-70
2022/11/19 05:28:11;;;;;;;24.38;15.80;;;-1.50;99.90;;;;;;5066500;28;20056;-70
2022/11/19 05:30:37;;;;;;;21.65;15.60;;;-1.50;99.90;;;;;;5060346;28;20052;-70
2022/11/19 05:33:03;;;;;;;27.45;15.63;;;-1.60;99.90;;;;;;5067444;28;20056;-70
2022/11/19 05:35:28;;;;;;;23.38;14.93;;;-1.60;99.90;;;;;;5067908;28;20138;-69
2022/11/19 05:37:54;;;;;;;23.73;14.82;;;-1.60;99.90;;;;;;5074544;28;20113;-70
2022/11/19 05:40:20;;;;;;;26.40;16.95;;;-1.60;99.90;;;;;;5066920;28;20133;-70
2022/11/19 05:42:45;;;;;;;26.52;16.75;;;-1.60;99.90;;;;;;5067062;28;20040;-70
2022/11/19 05:45:11;;;;;;;29.75;17.23;;;-1.60;99.90;;;;;;5049258;28;20048;-70
2022/11/19 05:47:37;;;;;;;25.35;15.82;;;-1.70;99.90;;;;;;5057744;28;20525;-70
2022/11/19 05:50:04;;;;;;;21.23;16.05;;;-1.60;99.90;;;;;;5070292;28;20072;-70
2022/11/19 05:52:30;;;;;;;24.98;16.75;;;-1.70;99.90;;;;;;5069257;28;20127;-70
2022/11/19 05:54:55;;;;;;;3.60;2.83;;;-1.70;99.90;;;;;;5066461;28;20137;-70
2022/11/19 05:57:21;;;;;;;31.55;18.40;;;-1.70;99.90;;;;;;5063268;28;20037;-70
2022/11/19 05:59:48;;;;;;;23.73;16.38;;;-1.70;99.90;;;;;;5061560;28;20059;-70
2022/11/19 06:02:13;;;;;;;4.50;2.75;;;-1.80;99.90;;;;;;5067102;28;20397;-70
2022/11/19 06:04:39;;;;;;;25.73;17.80;;;-1.80;99.90;;;;;;5058636;28;20045;-70
2022/11/19 06:07:05;;;;;;;27.25;18.67;;;-1.80;99.90;;;;;;5064198;28;20036;-70
2022/11/19 06:09:31;;;;;;;27.40;17.58;;;-1.80;99.90;;;;;;5071294;28;20098;-70
2022/11/19 06:11:57;;;;;;;30.13;17.98;;;-1.70;99.90;;;;;;5060795;28;20040;-70
2022/11/19 06:14:24;;;;;;;33.00;18.42;;;-1.70;99.90;;;;;;5068271;28;20051;-70
2022/11/19 06:16:52;;;;;;;32.13;19.98;;;-1.80;99.90;;;;;;5074964;28;20528;-70
2022/11/19 06:19:19;;;;;;;27.90;17.77;;;-1.80;99.90;;;;;;5066442;28;20102;-70
2022/11/19 06:21:44;;;;;;;33.67;19.10;;;-1.80;99.90;;;;;;5071254;28;20127;-70
2022/11/19 06:24:11;;;;;;;29.65;18.95;;;-1.80;99.90;;;;;;5065531;28;20501;-70
2022/11/19 06:26:38;;;;;;;31.40;19.73;;;-1.80;99.90;;;;;;5070210;28;20076;-70
2022/11/19 06:29:05;;;;;;;32.75;18.40;;;-1.80;99.90;;;;;;5049003;28;20132;-70
2022/11/19 06:31:31;;;;;;;38.17;19.55;;;-1.80;99.90;;;;;;5063090;28;20060;-70
2022/11/19 06:33:57;;;;;;;27.95;19.65;;;-1.80;99.90;;;;;;5073369;28;20527;-70
2022/11/19 06:36:23;;;;;;;31.00;19.40;;;-1.80;99.90;;;;;;5075314;28;20075;-70
2022/11/19 06:38:49;;;;;;;36.83;19.00;;;-1.90;99.90;;;;;;5079869;28;20052;-70
2022/11/19 06:41:15;;;;;;;26.85;18.38;;;-1.90;99.90;;;;;;5069251;28;20040;-70
2022/11/19 06:43:42;;;;;;;32.42;21.73;;;-1.90;99.90;;;;;;5064105;28;20056;-71
2022/11/19 06:46:08;;;;;;;36.70;21.45;;;-1.90;99.90;;;;;;5066413;28;20245;-70
2022/11/19 06:48:34;;;;;;;34.38;21.98;;;-1.90;99.90;;;;;;5065385;28;20084;-70
2022/11/19 06:51:00;;;;;;;36.03;21.05;;;-2.00;99.90;;;;;;5056817;28;20109;-70
2022/11/19 06:53:26;;;;;;;17.45;6.38;;;-2.00;99.90;;;;;;5052407;28;20047;-70
2022/11/19 06:56:00;;;;;;;12.15;4.50;;;-2.00;99.90;;;;;;5067238;28;20102;-70
2022/11/19 06:58:27;;;;;;;4.60;3.08;;;-2.10;99.90;;;;;;5056068;28;20044;-70
2022/11/19 07:00:52;;;;;;;33.15;21.65;;;-2.10;99.90;;;;;;5048974;28;20051;-70
2022/11/19 07:03:18;;;;;;;31.15;20.70;;;-2.10;99.90;;;;;;5066480;28;20040;-70
2022/11/19 07:05:47;;;;;;;39.30;22.02;;;-2.10;99.90;;;;;;5048428;28;20044;-70
2022/11/19 07:08:12;;;;;;;35.28;21.17;;;-2.20;99.90;;;;;;5055780;28;20163;-69
2022/11/19 07:10:38;;;;;;;11.07;6.10;;;-2.10;99.90;;;;;;5066660;28;20128;-70
2022/11/19 07:13:05;;;;;;;14.65;7.35;;;-2.20;99.90;;;;;;5065264;28;20897;-71
2022/11/19 07:15:30;;;;;;;21.02;5.47;;;-2.20;99.90;;;;;;5055226;28;20060;-71
2022/11/19 07:17:56;;;;;;;30.90;20.20;;;-2.20;99.90;;;;;;5068727;28;20040;-71
2022/11/19 07:20:22;;;;;;;34.67;22.60;;;-2.20;99.90;;;;;;5067811;28;20087;-70
2022/11/19 07:22:48;;;;;;;34.63;21.88;;;-2.20;99.90;;;;;;5058096;28;20227;-71
2022/11/19 07:25:14;;;;;;;37.30;22.92;;;-2.10;99.90;;;;;;5063169;28;20048;-71
2022/11/19 07:27:42;;;;;;;8.68;3.88;;;-2.10;99.90;;;;;;5071763;28;20060;-71
2022/11/19 07:30:09;;;;;;;32.60;21.48;;;-2.10;99.90;;;;;;5072231;28;20127;-71
2022/11/19 07:32:34;;;;;;;35.65;22.63;;;-2.10;99.90;;;;;;5076257;28;20071;-71
2022/11/19 07:35:00;;;;;;;3.13;2.83;;;-2.10;99.90;;;;;;5071672;28;20527;-71
2022/11/19 07:37:27;;;;;;;38.47;22.17;;;-2.00;99.90;;;;;;5071438;28;20163;-71
2022/11/19 07:39:52;;;;;;;38.00;23.20;;;-2.00;99.90;;;;;;5071219;28;20127;-71
2022/11/19 07:45:03;;;;;;;7.05;4.45;;;-2.00;99.90;;;;;;5073762;28;20148;-71
2022/11/19 07:47:28;;;;;;;17.98;6.45;;;-2.00;99.90;;;;;;5054178;28;20051;-71
2022/11/19 07:49:54;;;;;;;32.90;22.95;;;-2.00;99.90;;;;;;5068751;28;20136;-71
2022/11/19 07:52:20;;;;;;;37.42;21.10;;;-1.90;99.90;;;;;;5069074;28;20072;-71
2022/11/19 07:54:46;;;;;;;35.67;21.80;;;-1.90;99.90;;;;;;5067942;28;20052;-71
2022/11/19 07:57:12;;;;;;;39.05;23.42;;;-1.80;99.90;;;;;;5069256;28;20098;-71
2022/11/19 07:59:38;;;;;;;35.35;22.20;;;-1.80;99.90;;;;;;5066841;28;20087;-71
2022/11/19 08:02:03;;;;;;;36.00;22.65;;;-1.80;99.90;;;;;;5069151;28;20052;-71
2022/11/19 08:04:29;;;;;;;36.90;22.52;;;-1.70;99.90;;;;;;5065712;28;20068;-71
2022/11/19 08:06:55;;;;;;;33.83;21.48;;;-1.70;99.90;;;;;;5069127;28;20086;-71
2022/11/19 08:09:20;;;;;;;35.75;20.40;;;-1.60;99.90;;;;;;5069856;28;20045;-71
2022/11/19 08:11:46;;;;;;;39.13;22.83;;;-1.60;99.90;;;;;;5070035;28;20048;-71
2022/11/19 08:14:12;;;;;;;13.20;3.63;;;-1.60;99.90;;;;;;5065445;28;20370;-71
2022/11/19 08:19:23;;;;;;;33.78;22.40;;;-1.60;99.90;;;;;;5065664;28;20490;-70
2022/11/19 08:21:48;;;;;;;39.42;22.33;;;-1.50;99.90;;;;;;5054849;28;20044;-70
2022/11/19 08:24:18;;;;;;;39.20;24.65;;;-1.50;99.90;;;;;;5072867;28;20040;-70
2022/11/19 08:26:44;;;;;;;42.85;23.75;;;-1.40;99.90;;;;;;5068981;28;20973;-70
2022/11/19 08:29:12;;;;;;;34.58;22.50;;;-1.40;99.90;;;;;;5074011;28;20056;-71
2022/11/19 08:31:39;;;;;;;34.45;23.17;;;-1.40;99.90;;;;;;5074516;28;20063;-70
2022/11/19 08:34:04;;;;;;;8.82;5.03;;;-1.40;99.90;;;;;;5069633;28;20126;-71
2022/11/19 08:36:30;;;;;;;35.92;21.75;;;-1.30;99.90;;;;;;5071205;28;20056;-71
2022/11/19 08:38:57;;;;;;;37.00;23.70;;;-1.30;99.90;;;;;;5069875;28;20044;-71
2022/11/19 08:44:08;;;;;;;37.20;23.23;;;-1.20;99.90;;;;;;5067234;28;20056;-71
2022/11/19 08:46:33;;;;;;;38.05;23.30;;;-1.10;99.90;;;;;;5067495;28;20508;-71
2022/11/19 08:48:59;;;;;;;9.77;3.72;;;-1.10;99.90;;;;;;5068989;28;20049;-70
2022/11/19 08:51:25;;;;;;;35.03;22.27;;;-1.10;99.90;;;;;;5070116;28;20037;-71
2022/11/19 08:53:52;;;;;;;12.93;6.65;;;-1.10;99.90;;;;;;5066316;28;20044;-70
2022/11/19 08:56:18;;;;;;;36.22;23.50;;;-1.00;99.90;;;;;;5063194;28;20084;-71
2022/11/19 08:58:44;;;;;;;39.58;23.73;;;-1.00;99.90;;;;;;5067355;28;20041;-70
2022/11/19 09:01:11;;;;;;;5.50;3.88;;;-0.90;99.90;;;;;;5067761;28;20047;-71
2022/11/19 09:03:37;;;;;;;10.52;6.30;;;-0.80;99.90;;;;;;5063179;28;20127;-70
2022/11/19 09:06:04;;;;;;;39.08;22.70;;;-0.80;99.90;;;;;;5069041;28;20127;-70
2022/11/19 09:08:30;;;;;;;37.65;22.02;;;-0.70;99.90;;;;;;5064729;28;20844;-70
2022/11/19 09:10:55;;;;;;;34.80;22.33;;;-0.70;99.90;;;;;;5066845;28;20131;-70
2022/11/19 09:13:21;;;;;;;31.45;21.50;;;-0.60;99.90;;;;;;5082916;28;20059;-70
2022/11/19 09:15:48;;;;;;;34.08;21.63;;;-0.60;99.90;;;;;;5067336;28;20087;-70
2022/11/19 09:18:13;;;;;;;35.15;22.05;;;-0.60;99.90;;;;;;5064533;28;20052;-70
2022/11/19 09:20:39;;;;;;;33.42;20.42;;;-0.50;99.90;;;;;;5058354;28;20075;-70
2022/11/19 09:23:05;;;;;;;34.10;22.58;;;-0.50;99.90;;;;;;5071838;28;20039;-70
2022/11/19 09:25:32;;;;;;;10.52;5.60;;;-0.40;99.90;;;;;;5055746;28;20044;-70
2022/11/19 09:27:58;;;;;;;31.88;21.40;;;-0.40;99.90;;;;;;5066421;28;20596;-70
2022/11/19 09:30:24;;;;;;;40.50;23.77;;;-0.30;99.90;;;;;;5074159;28;20123;-70
2022/11/19 09:32:50;;;;;;;34.05;20.70;;;-0.20;99.90;;;;;;5061079;28;20047;-70
2022/11/19 09:35:15;;;;;;;33.95;21.85;;;-0.20;99.90;;;;;;5059728;28;20383;-70
2022/11/19 09:37:41;;;;;;;34.97;20.88;;;-0.10;99.90;;;;;;5064905;28;20134;-69
2022/11/19 09:40:10;;;;;;;8.77;5.00;;;0.00;99.90;;;;;;5063926;28;20047;-70
2022/11/19 09:43:13;;;;;;;18.30;8.52;;;0.00;99.90;;;;;;5069271;28;20044;-70
2022/11/19 09:45:51;;;;;;;9.48;5.32;;;0.10;99.90;;;;;;5062756;28;20528;-70
2022/11/19 09:48:32;;;;;;;31.43;19.70;;;0.10;99.90;;;;;;5068178;28;20055;-70
2022/11/19 09:51:27;;;;;;;11.75;6.35;;;0.20;99.90;;;;;;5059485;28;20054;-71
2022/11/19 09:54:01;;;;;;;30.35;18.83;;;0.20;99.90;;;;;;5057485;28;20048;-70
2022/11/19 09:56:33;;;;;;;33.65;21.20;;;0.30;99.90;;;;;;5068388;28;20052;-70
2022/11/19 09:59:06;;;;;;;30.25;19.95;;;0.30;99.90;;;;;;5067679;28;20040;-70
2022/11/19 10:01:34;;;;;;;33.13;21.52;;;0.40;99.90;;;;;;5067657;28;20044;-70
2022/11/19 10:04:00;;;;;;;29.92;19.58;;;0.50;99.90;;;;;;5071956;28;20121;-70
2022/11/19 10:06:51;;;;;;;34.65;20.90;;;0.50;99.90;;;;;;5076929;28;20532;-71
2022/11/19 10:09:21;;;;;;;29.85;19.38;;;0.50;99.90;;;;;;5070696;28;20037;-71
2022/11/19 10:12:09;;;;;;;31.80;19.98;;;0.60;99.90;;;;;;5068491;28;20040;-71
2022/11/19 10:14:54;;;;;;;30.05;19.80;;;0.60;99.90;;;;;;5059852;28;20044;-71
2022/11/19 10:17:57;;;;;;;33.28;20.50;;;0.70;99.90;;;;;;5050951;28;20040;-71
2022/11/19 10:20:35;;;;;;;25.60;17.30;;;0.80;99.90;;;;;;5068708;28;20052;-72
2022/11/19 10:23:17;;;;;;;26.07;17.67;;;0.80;99.90;;;;;;5070360;28;20060;-72
2022/11/19 10:25:48;;;;;;;28.20;17.88;;;0.90;99.90;;;;;;5064480;28;20044;-72
2022/11/19 10:28:25;;;;;;;27.23;17.35;;;0.90;99.90;;;;;;5061577;28;20060;-72
2022/11/19 10:30:54;;;;;;;29.88;18.35;;;0.90;99.90;;;;;;5072180;28;20055;-73
2022/11/19 10:33:23;;;;;;;29.30;19.05;;;1.00;99.90;;;;;;5069952;28;20036;-74
2022/11/19 10:36:06;;;;;;;28.65;18.73;;;1.00;99.90;;;;;;5058385;28;20059;-73
2022/11/19 10:38:44;;;;;;;24.45;17.08;;;1.10;99.90;;;;;;5059309;28;20612;-74
2022/11/19 10:41:20;;;;;;;13.88;6.45;;;1.10;99.90;;;;;;5055079;28;20037;-74
2022/11/19 10:44:35;;;;;;;31.00;18.58;;;1.10;99.90;;;;;;5079351;28;20048;-74
2022/11/19 10:46:59;;;;;;;34.00;18.50;;;1.20;99.90;;;;;;5059164;28;20516;-73
2022/11/19 10:49:25;;;;;;;25.05;16.45;;;1.20;99.90;;;;;;5065410;28;20109;-74
2022/11/19 10:51:51;;;;;;;10.35;4.38;;;1.20;99.90;;;;;;5066095;28;20045;-75
2022/11/19 10:54:29;;;;;;;29.63;16.83;;;1.30;99.90;;;;;;5061399;28;20048;-75
2022/11/19 10:56:55;;;;;;;6.93;5.20;;;1.30;99.90;;;;;;5069920;28;20111;-75
2022/11/19 10:59:25;;;;;;;29.30;18.10;;;1.40;99.90;;;;;;5061923;28;20648;-74
2022/11/19 11:01:56;;;;;;;24.95;17.75;;;1.50;99.90;;;;;;5062303;28;20119;-75
2022/11/19 11:04:23;;;;;;;8.55;5.93;;;1.40;99.90;;;;;;5062596;28;20068;-73
2022/11/19 11:06:52;;;;;;;28.98;16.40;;;1.50;99.90;;;;;;5075835;28;20041;-75
2022/11/19 11:09:41;;;;;;;22.85;15.63;;;1.60;99.90;;;;;;5067391;28;20043;-75
2022/11/19 11:15:17;;;;;;;29.27;16.67;;;1.70;99.90;;;;;;5060373;28;20163;-75
2022/11/19 11:17:45;;;;;;;26.08;15.68;;;1.80;99.90;;;;;;5082136;28;20059;-75
2022/11/19 11:20:17;;;;;;;21.50;15.18;;;1.80;99.90;;;;;;5077697;28;20048;-74
2022/11/19 11:22:45;;;;;;;23.25;15.32;;;1.80;99.90;;;;;;5074131;28;20059;-74
2022/11/19 11:25:20;;;;;;;23.58;16.65;;;1.80;99.90;;;;;;5070024;28;20045;-75
2022/11/19 11:28:04;;;;;;;22.40;15.57;;;1.80;99.90;;;;;;5072100;28;20136;-75
2022/11/19 11:30:29;;;;;;;23.90;15.63;;;1.90;99.90;;;;;;5075113;28;20477;-75
2022/11/19 11:32:55;;;;;;;22.15;14.57;;;1.90;99.90;;;;;;5078782;28;20055;-75
2022/11/19 11:35:43;;;;;;;24.90;16.52;;;2.00;99.90;;;;;;5083885;28;20048;-75
2022/11/19 11:38:08;;;;;;;23.53;15.50;;;2.00;99.90;;;;;;5075566;28;20052;-75
2022/11/19 11:40:34;;;;;;;30.50;16.17;;;2.00;99.90;;;;;;5064469;28;20047;-75
2022/11/19 11:43:00;;;;;;;20.85;14.80;;;2.10;99.90;;;;;;5063790;28;20053;-76
2022/11/19 11:45:35;;;;;;;24.35;15.95;;;2.10;99.90;;;;;;5069172;28;20040;-76
2022/11/19 11:48:07;;;;;;;19.80;13.68;;;2.20;99.90;;;;;;5069174;28;20524;-76
2022/11/19 11:50:35;;;;;;;22.88;14.95;;;2.20;99.90;;;;;;5066677;28;20049;-75
2022/11/19 11:53:07;;;;;;;24.03;15.03;;;2.20;99.90;;;;;;5063766;28;20074;-76
2022/11/19 11:55:33;;;;;;;22.75;14.65;;;2.20;99.90;;;;;;5068627;28;20056;-76
2022/11/19 11:58:04;;;;;;;19.92;14.02;;;2.20;99.90;;;;;;5068217;28;20045;-76
2022/11/19 12:00:32;;;;;;;18.85;13.05;;;2.30;99.90;;;;;;5066824;28;20052;-76
2022/11/19 12:03:03;;;;;;;25.30;14.88;;;2.30;99.90;;;;;;5066400;28;20051;-75
2022/11/19 12:05:51;;;;;;;20.80;14.80;;;2.30;99.90;;;;;;5068826;28;20505;-75
2022/11/19 12:09:01;;;;;;;22.30;14.43;;;2.40;99.90;;;;;;5064163;28;20091;-75
2022/11/19 12:11:52;;;;;;;20.35;14.75;;;2.40;99.90;;;;;;5061260;28;20064;-75
2022/11/19 12:14:30;;;;;;;11.60;4.25;;;2.50;99.90;;;;;;5069862;28;20049;-75
2022/11/19 12:17:07;;;;;;;18.75;12.95;;;2.50;99.90;;;;;;5052801;28;20041;-75
2022/11/19 12:20:15;;;;;;;16.67;12.10;;;2.50;99.90;;;;;;5067872;28;20052;-75
2022/11/19 12:23:03;;;;;;;18.77;12.70;;;2.60;99.90;;;;;;5069233;28;20060;-75
2022/11/19 12:25:51;;;;;;;17.33;11.35;;;2.60;99.90;;;;;;5068750;28;20063;-76
2022/11/19 12:28:48;;;;;;;19.98;12.57;;;2.60;99.90;;;;;;5060758;28;20060;-76
2022/11/19 12:31:48;;;;;;;17.05;10.85;;;2.70;99.90;;;;;;5068647;28;20055;-76
2022/11/19 12:34:53;;;;;;;4.97;3.08;;;2.70;99.90;;;;;;5064922;28;20052;-75
2022/11/19 12:37:56;;;;;;;20.27;12.20;;;2.70;99.90;;;;;;5071284;28;20049;-76
2022/11/19 12:40:43;;;;;;;19.10;11.73;;;2.70;99.90;;;;;;5066361;28;20052;-76
2022/11/19 12:43:18;;;;;;;16.95;11.95;;;2.70;99.90;;;;;;5067133;28;20048;-76
2022/11/19 12:46:19;;;;;;;16.65;11.30;;;2.70;99.90;;;;;;5078877;28;20462;-76
2022/11/19 12:48:56;;;;;;;19.15;11.70;;;2.80;99.90;;;;;;5065147;28;20052;-76
2022/11/19 12:51:50;;;;;;;18.17;11.55;;;2.80;99.90;;;;;;5074978;28;20049;-76
2022/11/19 12:54:35;;;;;;;18.95;11.43;;;2.80;99.90;;;;;;5047401;28;20118;-76
2022/11/19 12:57:18;;;;;;;19.63;12.55;;;2.80;99.90;;;;;;5066762;28;20120;-76
2022/11/19 13:00:09;;;;;;;8.13;4.35;;;2.80;99.90;;;;;;5081098;28;20101;-76
2022/11/19 13:02:54;;;;;;;18.55;12.85;;;2.80;99.90;;;;;;5059366;28;20060;-76
2022/11/19 13:05:42;;;;;;;17.45;10.98;;;2.80;99.90;;;;;;5063536;28;20177;-76
2022/11/19 13:08:33;;;;;;;17.70;12.10;;;2.80;99.90;;;;;;5063721;28;20048;-76
2022/11/19 13:11:24;;;;;;;16.80;11.32;;;2.90;99.90;;;;;;5077756;28;20055;-76
2022/11/19 13:14:09;;;;;;;16.83;10.98;;;2.90;99.90;;;;;;5063776;28;20102;-76
2022/11/19 13:16:35;;;;;;;18.25;11.18;;;2.90;99.90;;;;;;5073462;28;20052;-77